Time;durP1;ratioP1;P1;durP2;ratioP2;P2;SDS_P1;SDS_P2;PMS_P1;PMS_P2;Temp;Humidity;BMP_temperature;BMP_pressure;BME280_temperature;BME280_humidity;BME280_pressure;Samples;Min_cycle;Max_cycle;Signal;HPM_P1;HPM_P2
2022/08/12 00:44:50;;;;;;;3.97;2.60;;;20.00;99.90;;;;;;5033393;28;20046;-80
2022/08/12 00:47:17;;;;;;;4.18;2.70;;;19.90;99.90;;;;;;5034503;28;20120;-80
2022/08/12 00:49:44;;;;;;;5.13;2.72;;;19.90;99.90;;;;;;5034353;28;20053;-80
2022/08/12 00:52:12;;;;;;;4.93;2.65;;;20.00;99.90;;;;;;5034336;28;20087;-80
2022/08/12 00:54:50;;;;;;;3.92;2.30;;;19.90;99.90;;;;;;5034268;28;20049;-80
2022/08/12 00:57:21;;;;;;;3.28;2.47;;;19.90;99.90;;;;;;5034456;28;20045;-79
2022/08/12 00:59:51;;;;;;;3.47;2.40;;;20.00;99.90;;;;;;5034216;28;20045;-80
2022/08/12 01:02:27;;;;;;;3.42;2.50;;;19.80;99.90;;;;;;5034441;28;20120;-80
2022/08/12 01:13:21;;;;;;;4.70;2.70;;;19.80;99.90;;;;;;5034251;28;20437;-80
2022/08/12 01:15:50;;;;;;;4.15;2.65;;;19.70;99.90;;;;;;5033939;28;20473;-80
2022/08/12 01:18:20;;;;;;;4.40;2.75;;;19.70;99.90;;;;;;5033651;28;20060;-79
2022/08/12 01:20:52;;;;;;;3.55;2.30;;;19.70;99.90;;;;;;5033995;28;20088;-80
2022/08/12 01:23:55;;;;;;;7.28;2.75;;;19.70;99.90;;;;;;5033913;28;20088;-79
2022/08/12 01:26:23;;;;;;;7.40;2.75;;;19.70;99.90;;;;;;5033796;28;20125;-80
2022/08/12 01:28:54;;;;;;;4.70;2.90;;;19.60;99.90;;;;;;5033467;28;20405;-79
2022/08/12 01:31:21;;;;;;;4.90;2.60;;;19.60;99.90;;;;;;5034316;28;20504;-79
2022/08/12 01:34:10;;;;;;;3.63;2.80;;;19.70;99.90;;;;;;5032601;28;20050;-80
2022/08/12 01:36:43;;;;;;;4.45;2.70;;;19.50;99.90;;;;;;5033704;28;20097;-80
2022/08/12 01:39:09;;;;;;;4.28;2.83;;;19.50;99.90;;;;;;5033711;28;20053;-80
2022/08/12 01:41:44;;;;;;;5.88;2.42;;;19.50;99.90;;;;;;5034150;28;20046;-80
2022/08/12 01:44:11;;;;;;;5.43;2.60;;;19.50;99.90;;;;;;5033670;28;20046;-79
2022/08/12 01:46:49;;;;;;;5.07;2.70;;;19.40;99.90;;;;;;5033642;28;20136;-79
2022/08/12 01:49:42;;;;;;;4.10;2.78;;;19.40;99.90;;;;;;5033641;28;20049;-79
2022/08/12 01:52:19;;;;;;;4.97;3.15;;;19.40;99.90;;;;;;5034323;28;20038;-80
2022/08/12 01:54:45;;;;;;;6.53;2.92;;;19.40;99.90;;;;;;5037386;28;20473;-79
2022/08/12 01:57:38;;;;;;;;;;;19.30;99.90;;;;;;5038286;28;20056;-79
2022/08/12 02:00:11;;;;;;;6.22;3.30;;;19.30;99.90;;;;;;5037573;28;19921;-79
2022/08/12 02:03:18;;;;;;;6.57;3.08;;;19.20;99.90;;;;;;5037952;28;20064;-80
2022/08/12 02:11:55;;;;;;;4.93;3.10;;;19.10;99.90;;;;;;5037956;28;20061;-79
2022/08/12 02:14:37;;;;;;;4.72;3.05;;;19.10;99.90;;;;;;5036577;28;20045;-79
2022/08/12 02:17:27;;;;;;;5.72;3.05;;;19.00;99.90;;;;;;5037299;28;20071;-79
2022/08/12 02:20:27;;;;;;;5.70;3.50;;;19.00;99.90;;;;;;5036965;28;20084;-79
2022/08/12 02:22:54;;;;;;;4.43;3.28;;;19.00;99.90;;;;;;5037017;28;20049;-79
2022/08/12 02:25:35;;;;;;;;;;;18.90;99.90;;;;;;5037441;28;20049;-80
2022/08/12 02:28:01;;;;;;;5.07;3.15;;;18.90;99.90;;;;;;5037024;28;19921;-79
2022/08/12 02:30:30;;;;;;;5.53;3.20;;;18.80;99.90;;;;;;5037285;28;20087;-80
2022/08/12 02:32:59;;;;;;;8.23;3.97;;;18.80;99.90;;;;;;5037133;28;20060;-79
2022/08/12 02:35:29;;;;;;;5.75;3.55;;;18.80;99.90;;;;;;5036882;28;20051;-79
2022/08/12 02:37:59;;;;;;;6.82;3.95;;;18.70;99.90;;;;;;5037397;28;20045;-79
2022/08/12 02:40:27;;;;;;;4.55;3.78;;;18.70;99.90;;;;;;5036871;28;20065;-79
2022/08/12 02:43:01;;;;;;;3.90;3.50;;;18.70;99.90;;;;;;5035781;28;20045;-80
2022/08/12 02:45:37;;;;;;;5.57;3.70;;;18.70;99.90;;;;;;5037001;28;20429;-79
2022/08/12 02:48:06;;;;;;;7.40;3.63;;;18.60;99.90;;;;;;5036809;28;20041;-79
2022/08/12 02:50:38;;;;;;;4.47;3.75;;;18.60;99.90;;;;;;5036617;28;20048;-79
2022/08/12 02:53:06;;;;;;;7.85;4.20;;;18.50;99.90;;;;;;5036871;28;20454;-79
2022/08/12 02:55:34;;;;;;;5.05;4.00;;;18.50;99.90;;;;;;5036506;28;20041;-79
2022/08/12 02:58:08;;;;;;;5.60;4.05;;;18.50;99.90;;;;;;5036477;28;20095;-79
2022/08/12 03:00:36;;;;;;;5.85;3.50;;;18.40;99.90;;;;;;5035461;28;20508;-79
2022/08/12 03:03:08;;;;;;;5.80;4.28;;;18.40;99.90;;;;;;5035480;28;20042;-79
2022/08/12 03:05:42;;;;;;;4.50;3.70;;;18.40;99.90;;;;;;5036589;28;20049;-79
2022/08/12 03:08:12;;;;;;;5.30;3.83;;;18.50;99.90;;;;;;5036370;28;20393;-79
2022/08/12 03:10:42;;;;;;;5.90;3.25;;;18.40;99.90;;;;;;5035942;28;20050;-79
2022/08/12 03:13:09;;;;;;;4.72;3.95;;;18.40;99.90;;;;;;5036255;28;20520;-79
2022/08/12 03:15:36;;;;;;;4.80;3.83;;;18.30;99.90;;;;;;5036007;28;20132;-79
2022/08/12 03:18:17;;;;;;;9.68;4.13;;;18.30;99.90;;;;;;5036157;28;20053;-79
2022/08/12 03:20:44;;;;;;;7.50;4.25;;;18.30;99.90;;;;;;5036364;28;20077;-79
2022/08/12 03:23:12;;;;;;;8.82;3.78;;;18.30;99.90;;;;;;5034743;28;20049;-79
2022/08/12 03:25:40;;;;;;;5.07;3.58;;;18.30;99.90;;;;;;5034877;28;20495;-79
2022/08/12 03:28:09;;;;;;;3.97;3.58;;;18.20;99.90;;;;;;5036102;28;20524;-79
2022/08/12 03:30:36;;;;;;;8.25;3.78;;;18.30;99.90;;;;;;5035891;28;20132;-80
2022/08/12 03:33:02;;;;;;;;;;;18.30;99.90;;;;;;5036256;28;20045;-79
2022/08/12 03:35:31;;;;;;;5.40;3.72;;;18.20;99.90;;;;;;5035759;28;19927;-79
2022/08/12 03:38:05;;;;;;;6.50;3.78;;;18.20;99.90;;;;;;5035811;28;20046;-79
2022/08/12 04:00:23;;;;;;;4.80;3.33;;;18.00;99.90;;;;;;5035407;28;20136;-79
2022/08/12 04:03:00;;;;;;;3.88;3.15;;;18.00;99.90;;;;;;5035046;28;20057;-79
2022/08/12 04:05:27;;;;;;;6.22;4.03;;;17.90;99.90;;;;;;5034961;28;20158;-79
2022/08/12 04:07:54;;;;;;;7.85;3.60;;;17.90;99.90;;;;;;5035217;28;20124;-79
2022/08/12 04:10:20;;;;;;;5.03;3.75;;;17.90;99.90;;;;;;5033966;28;20496;-79
2022/08/12 04:13:15;;;;;;;5.87;3.80;;;17.90;99.90;;;;;;5035142;28;20045;-79
2022/08/12 04:15:44;;;;;;;5.22;3.70;;;17.90;99.90;;;;;;5034199;28;20396;-79
2022/08/12 04:18:17;;;;;;;5.10;3.58;;;17.90;99.90;;;;;;5033954;28;20095;-78
2022/08/12 04:20:44;;;;;;;6.10;3.65;;;17.70;99.90;;;;;;5034998;28;20045;-78
2022/08/12 04:23:13;;;;;;;5.85;3.50;;;17.80;99.90;;;;;;5034873;28;20068;-79
2022/08/12 04:25:39;;;;;;;5.90;3.65;;;17.70;99.90;;;;;;5034997;28;20131;-79
2022/08/12 04:28:10;;;;;;;6.57;3.70;;;17.70;99.90;;;;;;5034812;28;20095;-80
2022/08/12 04:30:36;;;;;;;5.40;3.70;;;17.70;99.90;;;;;;5034627;28;20046;-80
2022/08/12 04:33:03;;;;;;;6.88;3.50;;;17.70;99.90;;;;;;5033525;28;20397;-80
2022/08/12 04:35:30;;;;;;;5.10;3.25;;;17.70;99.90;;;;;;5034634;28;20052;-78
2022/08/12 04:37:56;;;;;;;;;;;17.60;99.90;;;;;;5035039;28;20041;-80
2022/08/12 04:40:24;;;;;;;7.20;3.67;;;17.50;99.90;;;;;;5033695;28;19921;-79
2022/08/12 04:42:52;;;;;;;4.85;3.75;;;17.60;99.90;;;;;;5034488;28;20048;-78
2022/08/12 04:45:18;;;;;;;4.90;3.83;;;17.60;99.90;;;;;;5034436;28;20045;-81
2022/08/12 04:47:45;;;;;;;5.40;4.13;;;17.60;99.90;;;;;;5034537;28;20037;-81
2022/08/12 04:50:15;;;;;;;8.43;3.85;;;17.70;99.90;;;;;;5034398;28;20412;-78
2022/08/12 04:52:41;;;;;;;8.18;3.92;;;17.70;99.90;;;;;;5034345;28;20045;-79
2022/08/12 04:55:15;;;;;;;5.33;3.90;;;17.60;99.90;;;;;;5033163;28;20412;-78
2022/08/12 04:57:41;;;;;;;5.65;3.80;;;17.70;99.90;;;;;;5002202;28;20280;-79
2022/08/12 05:00:12;;;;;;;4.27;3.87;;;17.70;99.90;;;;;;5033985;28;20072;-79
2022/08/12 05:02:38;;;;;;;5.18;3.78;;;17.70;99.90;;;;;;5034293;28;20077;-81
2022/08/12 05:05:07;;;;;;;6.35;3.97;;;17.70;99.90;;;;;;5034480;28;20099;-79
2022/08/12 05:07:34;;;;;;;9.18;3.97;;;17.70;99.90;;;;;;5034055;28;20053;-77
2022/08/12 05:10:00;;;;;;;5.80;4.30;;;17.70;99.90;;;;;;5034203;28;20052;-78
2022/08/12 05:12:31;;;;;;;6.32;3.92;;;17.80;99.90;;;;;;5034050;28;20052;-81
2022/08/12 05:14:58;;;;;;;5.20;3.95;;;17.70;99.90;;;;;;5016799;28;20045;-79
2022/08/12 05:17:24;;;;;;;5.20;3.53;;;17.80;99.90;;;;;;5033976;28;20045;-78
2022/08/12 05:19:50;;;;;;;6.40;3.95;;;17.80;99.90;;;;;;5033681;28;20045;-80
2022/08/12 05:22:16;;;;;;;5.30;4.43;;;17.80;99.90;;;;;;5033923;28;20060;-80
2022/08/12 05:24:43;;;;;;;6.47;4.30;;;17.90;99.90;;;;;;5034053;28;20473;-81
2022/08/12 05:27:10;;;;;;;5.57;4.40;;;18.00;99.90;;;;;;5033648;28;20057;-77
2022/08/12 05:29:36;;;;;;;6.78;4.90;;;18.00;99.90;;;;;;5034085;28;20046;-80
2022/08/12 05:32:02;;;;;;;6.77;4.80;;;18.00;99.90;;;;;;5016382;28;20052;-81
2022/08/12 05:34:29;;;;;;;8.27;4.60;;;18.10;99.90;;;;;;5033010;28;20046;-80
2022/08/12 05:36:55;;;;;;;7.28;4.03;;;18.20;99.90;;;;;;5032597;28;20056;-80
2022/08/12 05:39:20;;;;;;;8.67;3.90;;;18.30;99.90;;;;;;5016346;28;20042;-79
2022/08/12 05:41:46;;;;;;;6.93;4.60;;;18.30;99.90;;;;;;5034172;28;20049;-79
2022/08/12 05:44:12;;;;;;;7.93;3.93;;;18.40;99.90;;;;;;5032774;28;20497;-81
2022/08/12 05:46:38;;;;;;;6.60;4.00;;;18.40;99.90;;;;;;5032781;28;20045;-80
2022/08/12 05:49:04;;;;;;;8.03;4.07;;;18.50;99.90;;;;;;5033139;28;20064;-80
2022/08/12 05:51:32;;;;;;;10.10;4.43;;;18.50;99.90;;;;;;5033534;28;20048;-80
2022/08/12 05:53:59;;;;;;;8.73;4.55;;;18.60;99.90;;;;;;5033579;28;20057;-80
2022/08/12 05:56:30;;;;;;;6.25;3.80;;;18.60;99.90;;;;;;5033532;28;20041;-79
2022/08/12 05:58:57;;;;;;;8.05;3.72;;;18.80;99.90;;;;;;5033810;28;20045;-78
2022/08/12 06:01:25;;;;;;;6.20;3.42;;;18.80;99.90;;;;;;5033523;28;20400;-79
2022/08/12 06:03:51;;;;;;;8.93;3.40;;;18.90;99.90;;;;;;5033476;28;20041;-78
2022/08/12 06:06:18;;;;;;;7.43;3.63;;;18.90;99.90;;;;;;5016109;28;20374;-77
2022/08/12 06:08:46;;;;;;;7.93;3.40;;;19.00;99.90;;;;;;5033395;28;20122;-82
2022/08/12 06:11:16;;;;;;;4.93;3.85;;;19.20;99.90;;;;;;5031915;28;20060;-80
2022/08/12 06:13:42;;;;;;;7.28;4.20;;;19.20;99.90;;;;;;5033286;28;20511;-79
2022/08/12 06:16:10;;;;;;;5.72;4.35;;;19.30;99.90;;;;;;5033222;28;20135;-81
2022/08/12 06:18:39;;;;;;;7.10;4.25;;;19.50;99.90;;;;;;5033138;28;20059;-78
2022/08/12 06:21:09;;;;;;;9.00;4.25;;;19.60;99.90;;;;;;5025666;28;20042;-78
2022/08/12 06:23:36;;;;;;;5.78;3.97;;;19.70;99.90;;;;;;5023888;28;20131;-77
2022/08/12 06:26:02;;;;;;;10.90;4.43;;;19.90;99.90;;;;;;5020974;28;20121;-79
2022/08/12 06:28:29;;;;;;;9.60;4.30;;;20.10;99.90;;;;;;5022763;28;20041;-77
2022/08/12 06:30:56;;;;;;;7.63;4.32;;;20.30;99.90;;;;;;5022877;28;20042;-82
2022/08/12 06:33:21;;;;;;;;;;;20.50;99.90;;;;;;5021395;28;20048;-79
2022/08/12 06:35:48;;;;;;;7.80;4.10;;;20.60;99.90;;;;;;5022949;28;20015;-80
2022/08/12 06:38:14;;;;;;;6.15;3.78;;;20.70;99.90;;;;;;5023855;28;20041;-78
2022/08/12 06:43:26;;;;;;;10.50;3.45;;;21.00;99.90;;;;;;5026391;28;20058;-81
2022/08/12 06:45:52;;;;;;;7.03;3.87;;;21.20;99.90;;;;;;5027962;28;20049;-78
2022/08/12 06:48:18;;;;;;;6.57;3.60;;;21.40;99.90;;;;;;5035763;28;20375;-80
2022/08/12 06:50:44;;;;;;;9.27;3.50;;;21.40;99.90;;;;;;5036681;28;20393;-79
2022/08/12 06:53:10;;;;;;;;;;;21.60;99.90;;;;;;5036888;28;20121;-78
2022/08/12 06:55:36;;;;;;;7.32;3.42;;;21.80;99.90;;;;;;5036483;28;20024;-78
2022/08/12 06:58:03;;;;;;;6.00;3.50;;;21.80;99.90;;;;;;5036776;28;20046;-77
2022/08/12 07:00:34;;;;;;;3.95;3.10;;;22.10;99.90;;;;;;5035217;28;20489;-78
2022/08/12 07:03:02;;;;;;;7.63;3.90;;;22.20;99.90;;;;;;5036518;28;20426;-80
2022/08/12 07:05:28;;;;;;;4.53;2.95;;;22.30;99.90;;;;;;5019412;28;20089;-80
2022/08/12 07:07:54;;;;;;;4.60;3.55;;;22.50;99.90;;;;;;5037131;28;20085;-78
2022/08/12 07:10:24;;;;;;;12.05;3.92;;;22.60;99.90;;;;;;5035622;28;20057;-78
2022/08/12 07:12:53;;;;;;;5.95;3.40;;;22.70;99.90;;;;;;5037092;28;20045;-80
2022/08/12 07:15:23;;;;;;;7.40;3.25;;;22.80;99.90;;;;;;5036061;28;20118;-79
2022/08/12 07:18:10;;;;;;;5.40;3.45;;;22.90;99.90;;;;;;5036002;28;20049;-81
2022/08/12 07:20:42;;;;;;;5.32;2.90;;;23.10;99.90;;;;;;5036219;28;20053;-78
2022/08/12 07:23:09;;;;;;;8.88;3.05;;;23.20;99.90;;;;;;5036182;28;20091;-79
2022/08/12 07:25:36;;;;;;;4.07;3.20;;;23.30;99.90;;;;;;5034976;28;20485;-76
2022/08/12 07:28:03;;;;;;;6.35;3.50;;;23.40;99.90;;;;;;5018436;28;20037;-77
2022/08/12 07:30:31;;;;;;;5.88;3.60;;;23.40;99.90;;;;;;5035800;28;20100;-77
2022/08/12 07:33:00;;;;;;;5.00;3.40;;;23.50;99.90;;;;;;5035905;28;20045;-76
2022/08/12 07:35:27;;;;;;;6.85;3.28;;;23.60;99.90;;;;;;5034894;28;20042;-78
2022/08/12 07:37:54;;;;;;;6.97;3.45;;;23.70;99.90;;;;;;5034778;28;20053;-78
2022/08/12 07:40:20;;;;;;;6.43;3.17;;;23.80;99.90;;;;;;5035787;28;20045;-80
2022/08/12 07:42:46;;;;;;;9.38;3.45;;;24.00;99.90;;;;;;5034557;28;20045;-78
2022/08/12 07:45:12;;;;;;;5.93;3.23;;;24.00;99.90;;;;;;5030258;28;20116;-77
2022/08/12 07:47:42;;;;;;;6.33;3.17;;;24.20;99.90;;;;;;5014912;28;20045;-79
2022/08/12 07:50:12;;;;;;;7.88;3.30;;;24.30;99.90;;;;;;5032319;28;20504;-79
2022/08/12 07:52:41;;;;;;;8.68;3.58;;;24.40;99.90;;;;;;5035507;28;20049;-81
2022/08/12 07:55:07;;;;;;;6.22;3.28;;;24.40;99.90;;;;;;5034224;28;20470;-80
2022/08/12 07:57:34;;;;;;;8.05;3.72;;;24.60;99.90;;;;;;5033206;28;20088;-81
2022/08/12 08:00:02;;;;;;;4.82;3.35;;;24.70;99.90;;;;;;5035399;28;20045;-80
2022/08/12 08:02:28;;;;;;;7.32;3.42;;;24.80;99.90;;;;;;5035354;28;20136;-83
2022/08/12 08:04:56;;;;;;;6.83;3.10;;;25.00;99.90;;;;;;5035360;28;20084;-78
2022/08/12 08:07:28;;;;;;;5.75;3.22;;;25.10;99.90;;;;;;5035409;28;20049;-81
2022/08/12 08:09:56;;;;;;;5.80;3.33;;;25.30;99.90;;;;;;5034988;28;20053;-82
2022/08/12 08:15:09;;;;;;;5.47;3.40;;;25.40;98.60;;;;;;5035103;28;20067;-82
2022/08/12 08:17:36;;;;;;;9.43;3.15;;;25.40;98.20;;;;;;5034435;28;20045;-80
2022/08/12 08:20:01;;;;;;;13.88;3.45;;;25.50;98.10;;;;;;5035219;28;20096;-80
2022/08/12 08:22:27;;;;;;;9.33;3.33;;;25.60;98.50;;;;;;5035121;28;20477;-82
2022/08/12 08:24:57;;;;;;;7.00;2.90;;;25.80;98.20;;;;;;5034962;28;20045;-82
2022/08/12 08:27:23;;;;;;;4.90;2.42;;;25.90;97.70;;;;;;5033676;28;20085;-82
2022/08/12 08:29:49;;;;;;;4.93;2.60;;;26.00;97.80;;;;;;5033659;28;20049;-80
2022/08/12 08:32:15;;;;;;;7.40;2.58;;;26.20;97.40;;;;;;5034003;28;20081;-81
2022/08/12 08:34:44;;;;;;;6.50;3.10;;;26.40;97.10;;;;;;5033781;28;20496;-81
2022/08/12 08:37:14;;;;;;;7.38;2.10;;;26.40;96.30;;;;;;5034436;28;20095;-79
2022/08/12 08:39:40;;;;;;;6.80;2.30;;;26.50;96.00;;;;;;5034649;28;20045;-81
2022/08/12 08:44:50;;;;;;;5.43;2.10;;;26.90;95.70;;;;;;5034967;28;20045;-83
2022/08/12 08:47:16;;;;;;;8.50;2.87;;;27.00;95.00;;;;;;5034331;28;20048;-84
2022/08/12 08:49:43;;;;;;;5.43;2.50;;;27.00;94.30;;;;;;5016771;28;20565;-83
2022/08/12 08:52:10;;;;;;;4.15;2.35;;;27.00;94.50;;;;;;5033188;28;20489;-83
2022/08/12 08:54:36;;;;;;;;;;;27.10;94.90;;;;;;5034622;28;20050;-84
2022/08/12 08:57:04;;;;;;;7.00;2.58;;;27.10;94.90;;;;;;5033437;28;20265;-82
2022/08/12 08:59:30;;;;;;;8.73;2.20;;;27.30;94.90;;;;;;5033251;28;20100;-83
2022/08/12 09:01:56;;;;;;;7.82;2.60;;;27.30;94.50;;;;;;5033985;28;20084;-81
2022/08/12 09:04:23;;;;;;;8.38;2.30;;;27.40;94.20;;;;;;5034316;28;20127;-82
2022/08/12 09:06:55;;;;;;;;;;;27.50;93.70;;;;;;5033947;28;20056;-85
2022/08/12 09:09:21;;;;;;;5.35;1.95;;;27.50;93.00;;;;;;5017517;28;19967;-83
2022/08/12 09:14:31;;;;;;;5.70;2.55;;;27.70;93.20;;;;;;5033000;28;20091;-83
2022/08/12 09:16:57;;;;;;;5.57;2.20;;;27.80;92.70;;;;;;5033658;28;20077;-81
2022/08/12 09:19:25;;;;;;;6.03;2.10;;;27.90;92.40;;;;;;5032896;28;20107;-83
2022/08/12 09:21:51;;;;;;;6.47;2.40;;;28.00;92.10;;;;;;5032825;28;20101;-83
2022/08/12 09:24:18;;;;;;;2.88;1.90;;;28.10;91.70;;;;;;5033915;28;20114;-80
2022/08/12 09:26:45;;;;;;;6.75;2.30;;;28.20;91.50;;;;;;5033928;28;20049;-81
2022/08/12 09:29:14;;;;;;;3.65;2.08;;;28.30;91.30;;;;;;5034040;28;20049;-81
2022/08/12 09:31:40;;;;;;;6.65;2.25;;;28.50;91.20;;;;;;5033753;28;20088;-81
2022/08/12 09:34:10;;;;;;;4.57;2.00;;;28.60;90.60;;;;;;5033907;28;20495;-82
2022/08/12 09:36:37;;;;;;;5.65;2.05;;;28.70;90.40;;;;;;5033823;28;20052;-80
2022/08/12 09:39:06;;;;;;;4.78;2.03;;;28.80;90.50;;;;;;5033832;28;20053;-82
2022/08/12 09:41:39;;;;;;;6.18;2.45;;;29.00;90.40;;;;;;5033679;28;20048;-82
2022/08/12 09:46:48;;;;;;;5.53;2.20;;;29.10;89.80;;;;;;5033703;28;20050;-82
2022/08/12 09:49:14;;;;;;;3.43;2.00;;;29.30;90.00;;;;;;5032635;28;20167;-80
2022/08/12 09:51:42;;;;;;;6.15;2.17;;;29.30;89.40;;;;;;5033954;28;20045;-81
2022/08/12 09:54:11;;;;;;;10.65;2.22;;;29.50;88.50;;;;;;5033579;28;20401;-82
2022/08/12 09:56:40;;;;;;;7.05;2.35;;;29.60;88.80;;;;;;5033432;28;20042;-81
2022/08/12 09:59:08;;;;;;;4.57;2.20;;;29.70;86.20;;;;;;5033518;28;20092;-82
2022/08/12 10:01:37;;;;;;;6.50;2.15;;;29.70;85.30;;;;;;5032563;28;20103;-80
2022/08/12 10:04:09;;;;;;;5.60;2.00;;;29.80;85.40;;;;;;5032607;28;20049;-81
2022/08/12 10:06:36;;;;;;;5.68;1.90;;;29.90;85.00;;;;;;5033729;28;20379;-81
2022/08/12 10:09:05;;;;;;;4.75;2.05;;;29.90;84.30;;;;;;5033538;28;20092;-81
2022/08/12 10:14:16;;;;;;;6.00;2.03;;;30.10;84.80;;;;;;5036007;28;20093;-81
2022/08/12 10:16:44;;;;;;;4.33;1.80;;;30.10;84.30;;;;;;5037550;28;20143;-82
2022/08/12 10:19:11;;;;;;;6.43;1.90;;;30.30;84.00;;;;;;5037393;28;20675;-83
2022/08/12 10:21:40;;;;;;;5.05;1.90;;;30.30;83.70;;;;;;5037325;28;20045;-83
2022/08/12 10:24:17;;;;;;;4.28;1.75;;;30.40;83.30;;;;;;5037449;28;20045;-82
2022/08/12 10:29:43;;;;;;;5.03;1.70;;;30.60;82.40;;;;;;5037432;28;20076;-82
2022/08/12 10:32:15;;;;;;;7.63;1.70;;;30.60;79.30;;;;;;5037124;28;20111;-81
2022/08/12 10:34:42;;;;;;;4.70;1.70;;;30.70;78.20;;;;;;5037107;28;20081;-79
2022/08/12 10:37:08;;;;;;;4.68;2.00;;;30.80;78.40;;;;;;5036895;28;20045;-82
2022/08/12 10:39:36;;;;;;;6.03;1.77;;;30.90;77.40;;;;;;5037184;28;20046;-82
2022/08/12 10:45:02;;;;;;;2.60;1.63;;;31.10;76.10;;;;;;5036673;28;20132;-80
2022/08/12 10:47:29;;;;;;;5.25;2.13;;;31.30;77.50;;;;;;5037246;28;20067;-81
2022/08/12 10:49:58;;;;;;;3.45;1.60;;;31.30;76.80;;;;;;5037372;28;20051;-80
2022/08/12 10:52:30;;;;;;;7.43;1.50;;;31.40;74.50;;;;;;5036830;28;20104;-82
2022/08/12 10:54:57;;;;;;;5.20;1.48;;;31.50;74.20;;;;;;5037056;28;20099;-81
2022/08/12 10:57:25;;;;;;;2.58;1.55;;;31.50;72.20;;;;;;5037619;28;20053;-79
2022/08/12 10:59:56;;;;;;;5.15;1.70;;;31.50;72.40;;;;;;5038965;28;20091;-79
2022/08/12 11:02:26;;;;;;;2.10;1.50;;;31.50;72.70;;;;;;5037457;28;20130;-79
2022/08/12 11:04:56;;;;;;;5.22;1.77;;;31.60;72.50;;;;;;5036540;28;20148;-81
2022/08/12 11:07:23;;;;;;;5.85;1.65;;;31.70;72.60;;;;;;5019191;28;20046;-78
2022/08/12 11:09:49;;;;;;;2.55;1.55;;;31.80;72.50;;;;;;5036165;28;20504;-80
2022/08/12 11:12:16;;;;;;;4.43;1.50;;;31.80;72.40;;;;;;5036961;28;20046;-81
2022/08/12 11:14:43;;;;;;;4.70;1.83;;;31.70;70.60;;;;;;5036586;28;20049;-82
2022/08/12 11:17:11;;;;;;;4.95;1.83;;;31.60;71.60;;;;;;5036642;28;20131;-80
2022/08/12 11:19:39;;;;;;;4.45;1.88;;;31.80;72.10;;;;;;5036632;28;20042;-77
2022/08/12 11:22:06;;;;;;;3.55;1.80;;;31.80;69.30;;;;;;5036455;28;20049;-83
2022/08/12 11:24:32;;;;;;;2.38;1.30;;;31.80;71.00;;;;;;5034986;28;20049;-77
2022/08/12 11:27:00;;;;;;;4.10;1.85;;;31.80;70.50;;;;;;5035904;28;20049;-77
2022/08/12 11:29:27;;;;;;;4.30;1.63;;;31.90;69.00;;;;;;5036247;28;20046;-80
2022/08/12 11:31:53;;;;;;;3.78;1.50;;;32.00;69.60;;;;;;5035502;28;20461;-78
2022/08/12 11:34:19;;;;;;;;;;;32.00;67.90;;;;;;5036356;28;20452;-80
2022/08/12 11:36:57;;;;;;;3.97;1.40;;;32.10;67.80;;;;;;5034778;28;19921;-78
2022/08/12 11:39:23;;;;;;;6.60;1.90;;;32.20;68.20;;;;;;5035841;28;20042;-81
2022/08/12 11:41:49;;;;;;;3.90;2.03;;;32.40;69.10;;;;;;5035292;28;20088;-79
2022/08/12 11:44:15;;;;;;;4.63;1.90;;;32.40;68.00;;;;;;5034671;28;20053;-80
2022/08/12 11:46:42;;;;;;;7.03;1.90;;;32.30;68.70;;;;;;5035654;28;20041;-79
2022/08/12 11:49:08;;;;;;;4.63;1.95;;;32.40;68.60;;;;;;5035769;28;20050;-77
2022/08/12 11:51:34;;;;;;;3.22;1.60;;;32.50;69.00;;;;;;5035780;28;20037;-80
2022/08/12 11:54:00;;;;;;;;;;;32.60;68.90;;;;;;5036119;28;20050;-75
2022/08/12 11:56:26;;;;;;;5.88;1.83;;;32.70;67.50;;;;;;5035412;28;19921;-76
2022/08/12 11:58:52;;;;;;;;;;;32.80;68.70;;;;;;5035836;28;20069;-79
2022/08/12 12:01:17;;;;;;;3.92;2.00;;;32.80;66.60;;;;;;5035596;28;20373;-78
2022/08/12 12:03:43;;;;;;;5.55;1.80;;;32.90;67.70;;;;;;5035544;28;20056;-78
2022/08/12 12:06:09;;;;;;;5.13;1.67;;;32.90;68.10;;;;;;5035423;28;20045;-78
2022/08/12 12:08:34;;;;;;;2.55;1.63;;;33.00;68.10;;;;;;5035133;28;20428;-83
2022/08/12 12:11:00;;;;;;;5.97;2.42;;;33.10;68.40;;;;;;5035929;28;20057;-81
2022/08/12 12:13:26;;;;;;;3.90;1.92;;;33.00;67.50;;;;;;5034127;28;20132;-81
2022/08/12 12:15:52;;;;;;;4.07;2.25;;;33.00;67.10;;;;;;5035167;28;20100;-81
2022/08/12 12:18:24;;;;;;;4.90;1.90;;;33.00;67.30;;;;;;5035232;28;20045;-81
2022/08/12 12:20:52;;;;;;;8.70;2.15;;;33.00;66.20;;;;;;5034938;28;20553;-81
2022/08/12 12:23:18;;;;;;;6.05;2.33;;;33.00;66.20;;;;;;5035045;28;20128;-81
2022/08/12 12:25:44;;;;;;;3.10;1.95;;;33.00;66.00;;;;;;5035179;28;20477;-82
2022/08/12 12:28:10;;;;;;;7.53;2.13;;;32.90;65.90;;;;;;5034874;28;20132;-79
2022/08/12 12:30:36;;;;;;;2.88;1.95;;;33.00;66.40;;;;;;5035043;28;20073;-79
2022/08/12 12:33:03;;;;;;;5.03;2.20;;;33.00;66.00;;;;;;5034947;28;20064;-78
2022/08/12 12:35:29;;;;;;;5.53;2.20;;;33.10;66.40;;;;;;5026548;28;20049;-78
2022/08/12 12:38:00;;;;;;;3.80;2.20;;;33.10;65.90;;;;;;5013037;28;20129;-80
2022/08/12 12:40:28;;;;;;;4.63;2.28;;;33.10;65.40;;;;;;5033416;28;20061;-78
2022/08/12 12:42:54;;;;;;;6.90;2.53;;;33.20;65.60;;;;;;5034587;28;20046;-77
2022/08/12 12:45:20;;;;;;;6.07;2.28;;;33.20;65.20;;;;;;5034805;28;20041;-77
2022/08/12 12:48:05;;;;;;;5.32;2.35;;;33.10;65.10;;;;;;5033875;28;20417;-79
2022/08/12 12:50:36;;;;;;;4.68;2.25;;;33.00;64.60;;;;;;5033907;28;20057;-78
2022/08/12 12:53:04;;;;;;;4.63;1.88;;;33.10;66.50;;;;;;5034471;28;20107;-78
2022/08/12 12:55:31;;;;;;;4.72;1.80;;;33.10;65.80;;;;;;5033359;28;20041;-79
2022/08/12 12:57:57;;;;;;;4.68;2.10;;;33.00;65.10;;;;;;5033951;28;20056;-79
2022/08/12 13:00:24;;;;;;;4.18;2.38;;;33.00;65.50;;;;;;5034085;28;20057;-80
2022/08/12 13:02:55;;;;;;;4.80;2.20;;;33.00;65.90;;;;;;5033929;28;20049;-81
2022/08/12 13:05:34;;;;;;;5.88;2.53;;;33.00;65.20;;;;;;5033130;28;20089;-80
2022/08/12 13:08:02;;;;;;;4.32;2.30;;;33.10;66.20;;;;;;5033911;28;20091;-79
2022/08/12 13:10:29;;;;;;;5.57;2.20;;;33.00;63.90;;;;;;5034313;28;20058;-81
2022/08/12 13:12:55;;;;;;;6.15;2.47;;;33.10;64.90;;;;;;5033289;28;20045;-79
2022/08/12 13:15:22;;;;;;;3.88;2.13;;;33.00;64.40;;;;;;5033932;28;20037;-80
2022/08/12 13:17:50;;;;;;;6.15;2.60;;;33.10;65.80;;;;;;5033546;28;20055;-82
2022/08/12 13:20:20;;;;;;;3.63;2.40;;;33.20;65.10;;;;;;5033480;28;20048;-82
2022/08/12 13:22:47;;;;;;;6.13;2.72;;;33.30;65.00;;;;;;5033086;28;20053;-84
2022/08/12 13:25:15;;;;;;;8.32;2.60;;;33.30;65.40;;;;;;5033831;28;20497;-85
2022/08/12 13:27:49;;;;;;;5.80;2.55;;;33.30;66.20;;;;;;5033583;28;20088;-79
2022/08/12 13:30:19;;;;;;;5.90;2.28;;;33.20;63.70;;;;;;5034361;28;20041;-83
2022/08/12 13:32:53;;;;;;;3.70;2.17;;;33.30;65.20;;;;;;5034524;28;20086;-85
2022/08/12 13:35:19;;;;;;;5.00;1.85;;;33.30;64.70;;;;;;5033552;28;20042;-79
2022/08/12 13:37:52;;;;;;;;;;;33.20;64.90;;;;;;5034826;28;20072;-84
2022/08/12 13:40:19;;;;;;;5.38;2.00;;;33.20;64.10;;;;;;5035269;28;19936;-82
2022/08/12 13:42:48;;;;;;;5.82;2.03;;;33.10;64.20;;;;;;5034952;28;20111;-89
2022/08/12 13:45:14;;;;;;;5.85;2.28;;;33.10;63.80;;;;;;5028784;28;20038;-87
2022/08/12 13:47:54;;;;;;;5.88;2.10;;;33.00;64.20;;;;;;5014689;28;20500;-83
2022/08/12 13:50:20;;;;;;;9.85;2.13;;;33.10;64.80;;;;;;5019307;28;20100;-81
2022/08/12 13:52:49;;;;;;;4.28;1.90;;;33.10;64.50;;;;;;5033130;28;20091;-88
2022/08/12 13:55:15;;;;;;;4.05;1.70;;;33.10;63.80;;;;;;5006958;28;20057;-88
2022/08/12 13:57:42;;;;;;;;;;;33.20;63.90;;;;;;5019845;28;20100;-83
2022/08/12 14:00:11;;;;;;;5.00;1.70;;;33.20;63.20;;;;;;5019510;28;19925;-87
2022/08/12 14:02:37;;;;;;;3.10;1.90;;;33.20;64.20;;;;;;5003901;28;20046;-88
2022/08/12 14:05:08;;;;;;;2.78;1.80;;;33.30;64.90;;;;;;5004220;28;20370;-85
2022/08/12 14:07:51;;;;;;;4.10;1.80;;;33.30;63.80;;;;;;5018843;28;20056;-83
2022/08/12 14:10:40;;;;;;;5.40;2.00;;;33.30;63.30;;;;;;5019055;28;20560;-78
2022/08/12 14:13:09;;;;;;;5.07;1.88;;;33.50;63.60;;;;;;5019858;28;20042;-79
2022/08/12 14:15:37;;;;;;;4.10;2.00;;;33.40;62.80;;;;;;5027549;28;20176;-78
2022/08/12 14:18:11;;;;;;;5.45;1.50;;;33.40;63.50;;;;;;5037315;28;20405;-83
2022/08/12 14:20:37;;;;;;;5.15;2.00;;;33.40;62.60;;;;;;5011728;28;20135;-83
2022/08/12 14:23:03;;;;;;;;;;;33.40;63.50;;;;;;5020480;28;20056;-80
2022/08/12 14:25:29;;;;;;;4.68;1.80;;;33.50;63.30;;;;;;5020069;28;19925;-82
2022/08/12 14:28:10;;;;;;;3.08;1.70;;;33.40;63.10;;;;;;5019316;28;20053;-83
2022/08/12 14:30:46;;;;;;;5.43;2.15;;;33.50;63.50;;;;;;5018817;28;20064;-85
2022/08/12 14:33:14;;;;;;;5.50;1.70;;;33.50;63.30;;;;;;5018665;28;20056;-82
2022/08/12 14:35:40;;;;;;;5.22;1.70;;;33.50;62.90;;;;;;5020213;28;20128;-82
2022/08/12 14:38:24;;;;;;;4.97;1.83;;;33.50;63.60;;;;;;5020067;28;20469;-83
2022/08/12 14:40:52;;;;;;;5.63;1.55;;;33.40;62.80;;;;;;5018904;28;20100;-82